TimeCST,TemperatureF,Dew PointF,Humidity,Sea Level PressureIn,VisibilityMPH,Wind Direction,Wind SpeedMPH,Gust SpeedMPH,PrecipitationIn,Events,Conditions,WindDirDegrees,DateUTC
12:15 AM,17.8,16.0,93,30.10,1.5,North,19.6,24.2,N/A,Snow,Light Snow,360,2014-02-05 06:15:00
12:35 AM,17.6,16.2,94,30.09,0.8,North,18.4,-,N/A,Snow,Snow,360,2014-02-05 06:35:00
12:55 AM,17.6,16.2,94,30.08,1.2,North,19.6,-,N/A,Snow,Light Snow,360,2014-02-05 06:55:00
1:15 AM,18.0,16.3,93,30.08,1.2,North,21.9,26.5,N/A,Snow,Light Snow,360,2014-02-05 07:15:00
1:35 AM,18.1,16.5,93,30.07,1.2,North,19.6,27.6,N/A,Snow,Light Snow,10,2014-02-05 07:35:00
1:55 AM,18.0,16.3,93,30.07,1.8,North,20.7,-,N/A,Snow,Light Snow,360,2014-02-05 07:55:00
2:15 AM,17.6,15.8,93,30.08,2.5,North,19.6,26.5,N/A,Snow,Light Snow,360,2014-02-05 08:15:00
2:35 AM,17.6,15.8,93,30.08,3.0,North,19.6,-,N/A,Snow,Light Snow,360,2014-02-05 08:35:00
2:55 AM,17.8,15.6,91,30.08,3.0,North,20.7,-,N/A,,Clear,360,2014-02-05 08:55:00
3:15 AM,18.1,15.8,91,30.08,3.0,North,20.7,-,N/A,,Scattered Clouds,360,2014-02-05 09:15:00
3:35 AM,18.0,15.8,91,30.09,4.0,North,16.1,-,N/A,Snow,Light Snow,350,2014-02-05 09:35:00
3:55 AM,18.0,15.8,91,30.10,4.0,North,18.4,-,N/A,Snow,Light Snow,350,2014-02-05 09:55:00
4:15 AM,18.1,16.2,92,30.11,4.0,NNW,19.6,-,N/A,Snow,Light Snow,340,2014-02-05 10:15:00
4:35 AM,18.5,16.5,92,30.11,3.0,North,19.6,25.3,N/A,Snow,Light Snow,350,2014-02-05 10:35:00
4:55 AM,18.5,16.7,93,30.12,3.0,North,21.9,-,N/A,Snow,Light Snow,350,2014-02-05 10:55:00
5:15 AM,18.3,16.5,93,30.13,2.5,NNW,19.6,25.3,N/A,Snow,Light Snow,340,2014-02-05 11:15:00
5:35 AM,18.3,16.3,92,30.15,2.5,NNW,21.9,27.6,N/A,Snow,Light Snow,340,2014-02-05 11:35:00
5:55 AM,18.0,15.8,91,30.16,3.0,NNW,19.6,28.8,N/A,Snow,Light Snow,340,2014-02-05 11:55:00
6:15 AM,17.6,15.3,91,30.18,4.0,NNW,20.7,27.6,N/A,,Scattered Clouds,330,2014-02-05 12:15:00
6:35 AM,17.6,15.3,91,30.20,3.0,NNW,21.9,27.6,N/A,Snow,Light Snow,330,2014-02-05 12:35:00
6:55 AM,17.6,15.4,91,30.21,2.5,NNW,20.7,-,N/A,Snow,Light Snow,330,2014-02-05 12:55:00
7:15 AM,17.1,14.7,91,30.23,3.0,NW,17.3,-,N/A,Snow,Light Snow,320,2014-02-05 13:15:00
7:35 AM,16.7,14.5,91,30.24,1.5,NW,19.6,-,N/A,Snow,Light Snow,320,2014-02-05 13:35:00
7:55 AM,16.5,14.0,90,30.25,1.5,NNW,21.9,-,N/A,Snow,Light Snow,330,2014-02-05 13:55:00
8:15 AM,16.2,13.5,89,30.27,2.0,NW,20.7,-,N/A,Snow,Light Snow,320,2014-02-05 14:15:00
8:35 AM,15.8,13.1,89,30.28,2.0,NW,20.7,26.5,N/A,Snow,Light Snow,320,2014-02-05 14:35:00
8:55 AM,15.6,12.7,88,30.30,1.5,NW,21.9,27.6,N/A,Snow,Light Snow,320,2014-02-05 14:55:00
9:15 AM,15.4,12.2,87,30.31,2.5,NW,24.2,31.1,N/A,Snow,Light Snow,320,2014-02-05 15:15:00
9:35 AM,14.9,12.0,88,30.33,0.8,NW,21.9,29.9,N/A,Snow,Light Snow,320,2014-02-05 15:35:00
9:55 AM,14.9,12.0,88,30.34,1.2,NW,23.0,26.5,N/A,Snow,Light Snow,320,2014-02-05 15:55:00
10:35 AM,14.5,10.9,86,30.36,1.8,NW,23.0,28.8,N/A,Snow,Light Snow,320,2014-02-05 16:35:00
10:55 AM,14.5,10.8,85,30.37,1.0,NW,19.6,27.6,N/A,Snow,Light Snow,320,2014-02-05 16:55:00
11:15 AM,14.5,10.4,84,30.38,0.5,NW,24.2,28.8,N/A,Snow,Light Snow,320,2014-02-05 17:15:00
11:35 AM,14.2,10.2,84,30.38,2.0,NW,20.7,24.2,N/A,Snow,Light Snow,320,2014-02-05 17:35:00
11:55 AM,14.0,10.2,85,30.38,0.8,NW,20.7,27.6,N/A,Snow,Light Snow,320,2014-02-05 17:55:00
12:15 PM,14.2,9.9,83,30.40,0.5,NW,19.6,-,N/A,Snow,Light Snow,320,2014-02-05 18:15:00
12:35 PM,14.2,9.5,82,30.39,0.2,NW,20.7,26.5,N/A,Snow,Heavy Snow,320,2014-02-05 18:35:00
12:55 PM,14.2,9.5,82,30.40,0.5,NW,17.3,23.0,N/A,Snow,Light Snow,320,2014-02-05 18:55:00
1:15 PM,14.4,9.9,82,30.40,1.5,NW,17.3,-,N/A,Snow,Light Snow,310,2014-02-05 19:15:00
1:35 PM,14.0,9.5,82,30.40,0.5,NW,17.3,21.9,N/A,Snow,Light Snow,320,2014-02-05 19:35:00
1:55 PM,13.1,8.6,82,30.41,1.0,NW,18.4,-,N/A,Snow,Light Snow,310,2014-02-05 19:55:00
2:15 PM,12.7,8.1,82,30.41,2.0,NW,17.3,-,N/A,,Haze,310,2014-02-05 20:15:00
2:35 PM,12.6,7.5,80,30.43,7.0,WNW,17.3,-,N/A,,Clear,300,2014-02-05 20:35:00
2:55 PM,12.2,7.3,81,30.44,10.0,WNW,18.4,-,N/A,,Clear,300,2014-02-05 20:55:00
3:15 PM,11.8,6.6,80,30.44,5.0,NW,17.3,-,N/A,,Haze,310,2014-02-05 21:15:00
3:35 PM,11.5,6.4,80,30.45,10.0,NW,17.3,-,N/A,,Clear,310,2014-02-05 21:35:00
3:55 PM,11.3,5.7,78,30.46,10.0,NW,17.3,21.9,N/A,,Clear,310,2014-02-05 21:55:00
4:15 PM,10.9,5.0,77,30.47,10.0,NW,16.1,-,N/A,,Clear,310,2014-02-05 22:15:00
4:35 PM,10.2,5.0,79,30.48,10.0,NW,15.0,-,N/A,,Clear,310,2014-02-05 22:35:00
4:55 PM,9.5,4.6,81,30.49,10.0,NW,13.8,-,N/A,,Scattered Clouds,310,2014-02-05 22:55:00
5:15 PM,10.2,5.4,81,30.50,10.0,NW,15.0,-,N/A,,Overcast,310,2014-02-05 23:15:00
5:35 PM,10.0,5.0,80,30.50,10.0,NW,11.5,-,N/A,Snow,Light Snow,320,2014-02-05 23:35:00
5:55 PM,9.7,4.8,81,30.52,10.0,NW,15.0,-,N/A,Snow,Light Snow,310,2014-02-05 23:55:00
6:15 PM,8.4,3.6,81,30.52,10.0,NW,13.8,-,N/A,,Overcast,310,2014-02-06 00:15:00
6:35 PM,6.8,1.8,80,30.53,10.0,NW,12.7,-,N/A,,Scattered Clouds,310,2014-02-06 00:35:00
6:55 PM,5.5,0.9,81,30.53,10.0,NW,11.5,-,N/A,,Clear,320,2014-02-06 00:55:00
7:15 PM,4.6,0.1,82,30.54,10.0,NW,9.2,-,N/A,,Clear,310,2014-02-06 01:15:00
7:35 PM,4.8,0.5,82,30.54,10.0,WNW,10.4,-,N/A,,Scattered Clouds,300,2014-02-06 01:35:00
7:55 PM,4.5,-0.2,81,30.55,10.0,WNW,11.5,-,N/A,,Scattered Clouds,300,2014-02-06 01:55:00
8:15 PM,3.6,-1.1,81,30.55,10.0,NW,11.5,-,N/A,,Clear,310,2014-02-06 02:15:00
8:35 PM,3.6,-1.3,80,30.55,10.0,NW,12.7,-,N/A,,Clear,310,2014-02-06 02:35:00
8:55 PM,2.7,-2.4,79,30.55,10.0,NW,12.7,-,N/A,,Clear,310,2014-02-06 02:55:00
9:15 PM,2.1,-3.1,79,30.56,10.0,NW,10.4,-,N/A,,Clear,310,2014-02-06 03:15:00
9:35 PM,1.4,-4.0,78,30.56,10.0,NW,11.5,-,N/A,,Clear,310,2014-02-06 03:35:00
9:55 PM,1.0,-4.2,79,30.56,10.0,NW,11.5,-,N/A,,Clear,310,2014-02-06 03:55:00
10:15 PM,0.9,-4.4,79,30.56,10.0,NW,10.4,-,N/A,,Clear,310,2014-02-06 04:15:00
10:35 PM,0.9,-4.7,77,30.56,10.0,NW,8.1,-,N/A,,Clear,310,2014-02-06 04:35:00
10:55 PM,-0.4,-5.6,79,30.57,10.0,NW,9.2,-,N/A,,Clear,310,2014-02-06 04:55:00
11:15 PM,-1.1,-6.2,79,30.56,10.0,WNW,8.1,-,N/A,,Clear,300,2014-02-06 05:15:00
11:35 PM,-2.4,-7.4,79,30.56,10.0,West,6.9,-,N/A,,Clear,280,2014-02-06 05:35:00
11:55 PM,-4.4,-9.4,79,30.56,10.0,West,9.2,-,N/A,,Clear,280,2014-02-06 05:55:00